Airfield :







YOU CAN JOIN US ON...

 
LOGIN :

Register | Disclaimer

   EN    FR    IT 

 









Legend :    VFR   Marginal VFR   IFR   Intensive IFR   Very Intensive IFR
Visi :
Ceiling :
>= 8 km
>= 3000ft
5 to 8 km
1000 to 3000 ft
1500m to 5 km
500 to 1000 ft
800 to 1500m
200 to 500 ft
< 800m
< 200 ft
Symbols :   Thunderstorms  Fog  Heavy snow  Heavy precipitations  Wind > 20 kt






- Airport Elevation : 1808 ft
- IATA code : YWK


CYWK - Wabush

CURRENT METAR :
  • 170500Z AUTO 20007KT 9SM CLR 07/04 A3013 RMK SLP219

EXPIRED METARs :
  • 170400Z AUTO 22009KT 9SM CLR 08/04 A3015 RMK SLP228
  • 170300Z AUTO 21008KT 9SM BKN240 08/04 A3016 RMK SLP232

TAF TAF CYWK
Valid from the 17 at 02:00 until the 17 at 14:00 UTC


170138Z 1702/1714 20006KT P6SM BKN050
FM170500 21010KT P6SM FEW050
BECMG 1708/1710 22015G25KT
FM171200 22015G30KT P6SM SCT040 BKN140
BECMG 1712/1714 22018G38KT RMK NXT FCST BY 170800Z
CZUL FIR / North America



MET'MAP, your aeronautical weather chart ! - Copyright ORBIFLY December 2007 - Disclaimer

ORBIFLY MET'MAP TEAM :

Programming & Development : Alexandra Zaïnal
Concept & original design : Baudouin d'Aumeries
Assistance for programming : Marc-Olivier Méhu
Technical & hardware support : Manuel Goepfert

Contact : metmap@orbifly.com




SOURCES & CREDITS :

   NOAA